Погода Соловона 2 недели

Тверская область, Россия

22 мая-04 июня
  • 22мая
    Сегодня
    +8°
    +24°
    Ясно и безоблачно
    ВремяПогодаТемператураВлажностьДавлениеВетер, м/сВероятность осадков
    00:00Ясно и безоблачно+12°C55 %747 мм3.1 м/с2 %
    03:00Ясно и безоблачно+9°C63 %747 мм2.9 м/с2 %
    06:00Ясно и безоблачно+9°C65 %748 мм3.0 м/с2 %
    09:00Ясно и безоблачно+16°C56 %749 мм2.8 м/с2 %
    12:00Ясно и безоблачно+22°C39 %749 мм3.5 м/с2 %
    15:00Ясно и безоблачно+23°C36 %748 мм3.6 м/с2 %
    18:00Ясно и безоблачно+23°C36 %748 мм3.8 м/с2 %
    21:00Ясно и безоблачно+17°C51 %749 мм3.3 м/с2 %
  • 23мая
    Четверг
    +8°
    +22°
    Ясно и безоблачно
    ВремяПогодаТемператураВлажностьДавлениеВетер, м/сВероятность осадков
    00:00Ясно и безоблачно+12°C56 %750 мм3.3 м/с2 %
    03:00Ясно и безоблачно+10°C61 %751 мм3.7 м/с2 %
    06:00Ясно и безоблачно+10°C64 %752 мм3.6 м/с2 %
    09:00Ясно и безоблачно+16°C53 %752 мм3.4 м/с2 %
    12:00Ясно и безоблачно+20°C38 %753 мм4.5 м/с2 %
    15:00Ясно и безоблачно+22°C34 %753 мм4.0 м/с2 %
    18:00Ясно и безоблачно+21°C36 %752 мм4.3 м/с2 %
    21:00Ясно и безоблачно+17°C51 %753 мм3.1 м/с2 %
  • 24мая
    Пятница
    +7°
    +22°
    Ясно и безоблачно
    ВремяПогодаТемператураВлажностьДавлениеВетер, м/сВероятность осадков
    00:00Ясно и безоблачно+12°C57 %754 мм2.9 м/с2 %
    03:00Ясно и безоблачно+9°C66 %754 мм2.7 м/с2 %
    06:00Ясно и безоблачно+9°C68 %755 мм2.7 м/с2 %
    09:00Ясно и безоблачно+16°C46 %756 мм3.4 м/с2 %
    12:00Ясно и безоблачно+19°C35 %756 мм4.4 м/с2 %
    15:00Ясно и безоблачно+21°C30 %755 мм3.9 м/с2 %
    18:00Ясно и безоблачно+22°C31 %754 мм3.6 м/с2 %
    21:00Ясно и безоблачно+16°C50 %754 мм2.7 м/с2 %
  • 25мая
    Суббота
    +9°
    +24°
    Ясно и безоблачно
    ВремяПогодаТемператураВлажностьДавлениеВетер, м/сВероятность осадков
    00:00Ясно и безоблачно+11°C59 %754 мм3.0 м/с2 %
    03:00Ясно и безоблачно+9°C70 %754 мм2.7 м/с2 %
    06:00Ясно и безоблачно+9°C75 %754 мм2.6 м/с2 %
    09:00Ясно и безоблачно+16°C58 %754 мм2.1 м/с2 %
    12:00Ясно и безоблачно+21°C44 %753 мм2.3 м/с2 %
    15:00Ясно и безоблачно+23°C39 %752 мм2.4 м/с2 %
    18:00Ясно и безоблачно+24°C40 %751 мм1.8 м/с2 %
    21:00Ясно и безоблачно+18°C68 %750 мм1.3 м/с2 %
  • 26мая
    Воскресенье
    +12°
    +25°
    Небольшая облачность
    ВремяПогодаТемператураВлажностьДавлениеВетер, м/сВероятность осадков
    00:00Ясно и безоблачно+13°C80 %750 мм1.5 м/с2 %
    03:00Ясно и безоблачно+11°C83 %750 мм1.9 м/с2 %
    06:00Ясно и безоблачно+11°C82 %750 мм1.8 м/с2 %
    09:00Практически безоблачно+20°C61 %750 мм1.3 м/с6 %
    12:00Небольшая облачность+24°C39 %750 мм2.3 м/с19 %
    15:00Небольшая облачность+24°C39 %750 мм2.9 м/с25 %
    18:00Облачно с прояснениями+22°C56 %750 мм3.8 м/с44 %
    21:00Ясно и безоблачно+19°C78 %750 мм2.0 м/с17 %
Мы используем cookies
Соглашаюсь